INFORMACIÓN METAR y TAF
METAR FOR LEGE
ADDS - METARS form results

(2000 UTC 03 June 2020)
Data provider http://aviationweather.gov/metar/data/
 
METAR text: LEGE 031930Z VRB01KT 8000 SHRA FEW015 SCT030CB 18/17 Q1006
Conditions at: LEGE (GERONA/COSTA BRA, ES) observed 1930 UTC 03 June 2020
Temperature: 18.0°C (64°F)
Dewpoint: 17.0°C (63°F) [RH = 94%]
Pressure (altimeter): 29.70 inches Hg (1006.0 mb)
Winds: variable direction winds at 1 MPH (1 knots; 0.5 m/s)
Visibility: 5 miles ( 8 km)
Ceiling: at least 12,000 feet AGL
Clouds: few clouds at 1500 feet AGL
scattered clouds at 3000 feet AGL
Weather: SHRA  (rain showers)

METAR text: LEGE 031914Z 26004KT 9999 4000N SHRA FEW015 SCT030CB BKN050 18/17 Q1006
Conditions at: LEGE (GERONA/COSTA BRA, ES) observed 1914 UTC 03 June 2020
Temperature: 18.0°C (64°F)
Dewpoint: 17.0°C (63°F) [RH = 94%]
Pressure (altimeter): 29.70 inches Hg (1006.0 mb)
Winds: from the W (260 degrees) at 5 MPH (4 knots; 2.1 m/s)
Visibility: 6 or more miles (10+ km)
Ceiling: 5000 feet AGL
Clouds: few clouds at 1500 feet AGL
scattered clouds at 3000 feet AGL
broken clouds at 5000 feet AGL
Weather: SHRA  (rain showers)

Forecast for: LEGE (GERONA/COSTA BRA, ES)
Text: TAF LEGE 031700Z 0318/0418 VRB03KT 9999 FEW030 SCT040 TX22/0415Z TN13/0406Z
Forecast period: 1800 UTC 03 June 2020 to 1800 UTC 04 June 2020
Forecast type: FROM: standard forecast or significant change
Winds: variable direction winds at 3 MPH (3 knots; 1.5 m/s)
Visibility: 6 or more miles 10+ km)
Ceiling: at least 12,000 feet AGL
Clouds: few clouds at 3000 feet AGL
scattered clouds at 4000 feet AGL
Weather: no significant weather forecast for this period
Text: TEMPO 0318/0418 4000 TSRA SCT030CB BKN040
Forecast period: 1800 UTC 03 June 2020 to 1800 UTC 04 June 2020
Forecast type: TEMPORARY: The following changes expected for less than half the time period
Visibility: 2.49 miles (4.01 km)
Ceiling: 4000 feet AGL
Clouds: scattered clouds at 3000 feet AGL
broken clouds at 4000 feet AGL
Weather: TSRA  (rain associated with thunderstorm(s))

MAPA DE AEROPUERTO

INFORMACIÓN DE PISTA
Pista 02 Longitud 7874 ft Ancho 148 ft
Elevación 403 ft Umbral desplazado 0 ft Rumbo de pista 16
Pista 20 Longitud 7874 ft Ancho 148 ft
Elevación 468 ft Umbral desplazado 0 ft Rumbo de pista 196

FRECUANCIAS DEL AEROPUERTO
Tipo APP Nombre APP Frecuencia 120.9 MHZ
Tipo GND Nombre GND Frecuencia 121.7 MHZ
Tipo TWR Nombre TWR Frecuencia 118.5 MHZ

RADIO AYUDAS DEL AEROPUERTO
Tipo VOR-DME Nombre Gerona Frecuencia 114100 KHZ
Tipo NDB Nombre Gerona Frecuencia 412 KHZ